sensor_id;sensor_type;location;lat;lon;timestamp;P1;durP1;ratioP1;P2;durP2;ratioP2
11473;SDS011;5793;52.238;13.438;2022-07-29T00:02:06;2.33;;;1.98;;
11473;SDS011;5793;52.238;13.438;2022-07-29T00:04:33;3.55;;;2.20;;
11473;SDS011;5793;52.238;13.438;2022-07-29T00:07:02;5.10;;;2.20;;
11473;SDS011;5793;52.238;13.438;2022-07-29T00:09:29;4.15;;;2.10;;
11473;SDS011;5793;52.238;13.438;2022-07-29T00:11:59;4.15;;;2.47;;
11473;SDS011;5793;52.238;13.438;2022-07-29T00:14:28;4.07;;;2.33;;
11473;SDS011;5793;52.238;13.438;2022-07-29T00:16:56;7.40;;;2.60;;
11473;SDS011;5793;52.238;13.438;2022-07-29T00:19:23;3.42;;;2.25;;
11473;SDS011;5793;52.238;13.438;2022-07-29T00:21:51;3.17;;;2.45;;
11473;SDS011;5793;52.238;13.438;2022-07-29T00:24:19;6.57;;;2.17;;
11473;SDS011;5793;52.238;13.438;2022-07-29T00:26:47;3.92;;;2.05;;
11473;SDS011;5793;52.238;13.438;2022-07-29T00:29:16;3.58;;;2.35;;
11473;SDS011;5793;52.238;13.438;2022-07-29T00:32:00;7.53;;;2.78;;
11473;SDS011;5793;52.238;13.438;2022-07-29T00:34:28;5.78;;;2.22;;
11473;SDS011;5793;52.238;13.438;2022-07-29T00:37:14;7.32;;;2.55;;
11473;SDS011;5793;52.238;13.438;2022-07-29T00:39:41;6.38;;;2.72;;
11473;SDS011;5793;52.238;13.438;2022-07-29T00:42:09;3.75;;;2.50;;
11473;SDS011;5793;52.238;13.438;2022-07-29T00:44:39;3.92;;;2.30;;
11473;SDS011;5793;52.238;13.438;2022-07-29T00:47:08;4.53;;;2.63;;
11473;SDS011;5793;52.238;13.438;2022-07-29T00:49:37;5.15;;;2.53;;
11473;SDS011;5793;52.238;13.438;2022-07-29T00:52:08;5.05;;;2.50;;
11473;SDS011;5793;52.238;13.438;2022-07-29T00:54:37;4.95;;;2.55;;
11473;SDS011;5793;52.238;13.438;2022-07-29T00:57:10;5.57;;;2.28;;
11473;SDS011;5793;52.238;13.438;2022-07-29T00:59:40;5.90;;;2.97;;
11473;SDS011;5793;52.238;13.438;2022-07-29T01:02:07;4.50;;;2.40;;
11473;SDS011;5793;52.238;13.438;2022-07-29T01:04:35;4.90;;;2.97;;
11473;SDS011;5793;52.238;13.438;2022-07-29T01:07:03;5.32;;;2.85;;
11473;SDS011;5793;52.238;13.438;2022-07-29T01:09:31;5.38;;;2.35;;
11473;SDS011;5793;52.238;13.438;2022-07-29T01:12:12;3.40;;;2.93;;
11473;SDS011;5793;52.238;13.438;2022-07-29T01:14:43;5.68;;;2.88;;
11473;SDS011;5793;52.238;13.438;2022-07-29T01:17:14;6.27;;;3.03;;
11473;SDS011;5793;52.238;13.438;2022-07-29T01:19:49;6.25;;;2.83;;
11473;SDS011;5793;52.238;13.438;2022-07-29T01:22:25;3.85;;;2.92;;
11473;SDS011;5793;52.238;13.438;2022-07-29T01:25:04;5.25;;;3.00;;
11473;SDS011;5793;52.238;13.438;2022-07-29T01:27:44;3.47;;;2.95;;
11473;SDS011;5793;52.238;13.438;2022-07-29T01:30:28;5.07;;;2.80;;
11473;SDS011;5793;52.238;13.438;2022-07-29T01:33:00;7.50;;;3.28;;
11473;SDS011;5793;52.238;13.438;2022-07-29T01:35:33;4.13;;;2.80;;
11473;SDS011;5793;52.238;13.438;2022-07-29T01:38:06;6.67;;;3.30;;
11473;SDS011;5793;52.238;13.438;2022-07-29T01:40:39;5.73;;;3.30;;
11473;SDS011;5793;52.238;13.438;2022-07-29T01:43:11;6.63;;;3.10;;
11473;SDS011;5793;52.238;13.438;2022-07-29T01:45:45;5.73;;;3.50;;
11473;SDS011;5793;52.238;13.438;2022-07-29T01:48:18;6.83;;;3.70;;
11473;SDS011;5793;52.238;13.438;2022-07-29T01:50:50;4.80;;;3.50;;
11473;SDS011;5793;52.238;13.438;2022-07-29T01:53:23;5.25;;;3.70;;
11473;SDS011;5793;52.238;13.438;2022-07-29T01:56:03;6.27;;;4.20;;
11473;SDS011;5793;52.238;13.438;2022-07-29T01:58:33;6.78;;;4.10;;
11473;SDS011;5793;52.238;13.438;2022-07-29T02:01:05;7.63;;;4.05;;
11473;SDS011;5793;52.238;13.438;2022-07-29T02:03:36;7.37;;;4.23;;
11473;SDS011;5793;52.238;13.438;2022-07-29T02:06:06;6.30;;;3.70;;
11473;SDS011;5793;52.238;13.438;2022-07-29T02:08:36;8.17;;;3.73;;
11473;SDS011;5793;52.238;13.438;2022-07-29T02:11:06;4.83;;;3.57;;
11473;SDS011;5793;52.238;13.438;2022-07-29T02:13:35;5.28;;;3.38;;
11473;SDS011;5793;52.238;13.438;2022-07-29T02:16:06;6.45;;;4.07;;
11473;SDS011;5793;52.238;13.438;2022-07-29T02:18:37;6.93;;;4.15;;
11473;SDS011;5793;52.238;13.438;2022-07-29T02:21:08;6.50;;;3.92;;
11473;SDS011;5793;52.238;13.438;2022-07-29T02:23:40;6.28;;;3.95;;
11473;SDS011;5793;52.238;13.438;2022-07-29T02:26:17;9.90;;;4.30;;
11473;SDS011;5793;52.238;13.438;2022-07-29T02:28:46;7.27;;;4.40;;
11473;SDS011;5793;52.238;13.438;2022-07-29T02:31:16;7.17;;;4.20;;
11473;SDS011;5793;52.238;13.438;2022-07-29T02:33:47;7.73;;;4.43;;
11473;SDS011;5793;52.238;13.438;2022-07-29T02:36:17;5.87;;;3.90;;
11473;SDS011;5793;52.238;13.438;2022-07-29T02:38:48;7.77;;;4.00;;
11473;SDS011;5793;52.238;13.438;2022-07-29T02:41:20;5.20;;;4.00;;
11473;SDS011;5793;52.238;13.438;2022-07-29T02:43:52;5.77;;;3.93;;
11473;SDS011;5793;52.238;13.438;2022-07-29T02:46:25;9.83;;;3.70;;
11473;SDS011;5793;52.238;13.438;2022-07-29T02:48:59;5.60;;;3.78;;
11473;SDS011;5793;52.238;13.438;2022-07-29T02:51:33;6.70;;;4.30;;
11473;SDS011;5793;52.238;13.438;2022-07-29T02:54:10;5.53;;;4.10;;
11473;SDS011;5793;52.238;13.438;2022-07-29T02:56:44;10.23;;;4.43;;
11473;SDS011;5793;52.238;13.438;2022-07-29T02:59:13;8.23;;;4.07;;
11473;SDS011;5793;52.238;13.438;2022-07-29T03:01:46;8.57;;;4.15;;
11473;SDS011;5793;52.238;13.438;2022-07-29T03:04:15;5.75;;;4.05;;
11473;SDS011;5793;52.238;13.438;2022-07-29T03:06:46;6.50;;;4.60;;
11473;SDS011;5793;52.238;13.438;2022-07-29T03:09:15;7.82;;;4.13;;
11473;SDS011;5793;52.238;13.438;2022-07-29T03:11:44;7.50;;;4.03;;
11473;SDS011;5793;52.238;13.438;2022-07-29T03:14:15;7.13;;;4.20;;
11473;SDS011;5793;52.238;13.438;2022-07-29T03:16:47;6.70;;;4.22;;
11473;SDS011;5793;52.238;13.438;2022-07-29T03:19:16;9.60;;;4.37;;
11473;SDS011;5793;52.238;13.438;2022-07-29T03:21:44;8.98;;;4.10;;
11473;SDS011;5793;52.238;13.438;2022-07-29T03:24:23;4.90;;;4.13;;
11473;SDS011;5793;52.238;13.438;2022-07-29T03:26:55;7.60;;;4.43;;
11473;SDS011;5793;52.238;13.438;2022-07-29T03:29:24;5.78;;;3.90;;
11473;SDS011;5793;52.238;13.438;2022-07-29T03:32:01;7.43;;;4.32;;
11473;SDS011;5793;52.238;13.438;2022-07-29T03:34:34;8.00;;;4.38;;
11473;SDS011;5793;52.238;13.438;2022-07-29T03:37:02;5.90;;;4.13;;
11473;SDS011;5793;52.238;13.438;2022-07-29T03:39:31;6.57;;;4.27;;
11473;SDS011;5793;52.238;13.438;2022-07-29T03:42:03;6.93;;;4.17;;
11473;SDS011;5793;52.238;13.438;2022-07-29T03:44:33;4.60;;;3.85;;
11473;SDS011;5793;52.238;13.438;2022-07-29T03:47:04;6.10;;;4.13;;
11473;SDS011;5793;52.238;13.438;2022-07-29T03:49:35;5.57;;;3.47;;
11473;SDS011;5793;52.238;13.438;2022-07-29T03:52:04;5.70;;;4.07;;
11473;SDS011;5793;52.238;13.438;2022-07-29T03:54:33;10.77;;;4.27;;
11473;SDS011;5793;52.238;13.438;2022-07-29T03:57:01;6.82;;;4.03;;
11473;SDS011;5793;52.238;13.438;2022-07-29T03:59:32;5.50;;;4.13;;
11473;SDS011;5793;52.238;13.438;2022-07-29T04:02:02;6.13;;;4.53;;
11473;SDS011;5793;52.238;13.438;2022-07-29T04:04:33;7.22;;;3.85;;
11473;SDS011;5793;52.238;13.438;2022-07-29T04:07:02;4.67;;;3.50;;
11473;SDS011;5793;52.238;13.438;2022-07-29T04:09:30;7.05;;;4.22;;
11473;SDS011;5793;52.238;13.438;2022-07-29T04:11:58;6.55;;;4.00;;
11473;SDS011;5793;52.238;13.438;2022-07-29T04:14:29;7.68;;;4.38;;
11473;SDS011;5793;52.238;13.438;2022-07-29T04:16:57;5.88;;;3.92;;
11473;SDS011;5793;52.238;13.438;2022-07-29T04:19:25;6.15;;;4.20;;
11473;SDS011;5793;52.238;13.438;2022-07-29T04:21:54;6.63;;;4.28;;
11473;SDS011;5793;52.238;13.438;2022-07-29T04:24:22;4.80;;;3.63;;
11473;SDS011;5793;52.238;13.438;2022-07-29T04:26:49;4.55;;;3.90;;
11473;SDS011;5793;52.238;13.438;2022-07-29T04:29:17;5.47;;;4.20;;
11473;SDS011;5793;52.238;13.438;2022-07-29T04:31:46;6.13;;;4.13;;
11473;SDS011;5793;52.238;13.438;2022-07-29T04:34:14;6.57;;;4.00;;
11473;SDS011;5793;52.238;13.438;2022-07-29T04:36:42;4.78;;;3.45;;
11473;SDS011;5793;52.238;13.438;2022-07-29T04:39:11;5.50;;;4.18;;
11473;SDS011;5793;52.238;13.438;2022-07-29T04:41:44;5.13;;;3.75;;
11473;SDS011;5793;52.238;13.438;2022-07-29T04:44:13;5.20;;;3.60;;
11473;SDS011;5793;52.238;13.438;2022-07-29T04:46:42;5.32;;;3.80;;
11473;SDS011;5793;52.238;13.438;2022-07-29T04:49:10;7.53;;;3.80;;
11473;SDS011;5793;52.238;13.438;2022-07-29T04:51:39;7.53;;;3.67;;
11473;SDS011;5793;52.238;13.438;2022-07-29T04:54:07;6.20;;;3.90;;
11473;SDS011;5793;52.238;13.438;2022-07-29T04:56:36;5.68;;;3.75;;
11473;SDS011;5793;52.238;13.438;2022-07-29T04:59:03;4.80;;;3.90;;
11473;SDS011;5793;52.238;13.438;2022-07-29T05:01:31;5.03;;;3.85;;
11473;SDS011;5793;52.238;13.438;2022-07-29T05:03:59;6.38;;;3.80;;
11473;SDS011;5793;52.238;13.438;2022-07-29T05:06:28;14.32;;;12.82;;
11473;SDS011;5793;52.238;13.438;2022-07-29T05:08:56;5.63;;;3.63;;
11473;SDS011;5793;52.238;13.438;2022-07-29T05:11:24;6.22;;;4.03;;
11473;SDS011;5793;52.238;13.438;2022-07-29T05:13:57;6.30;;;3.92;;
11473;SDS011;5793;52.238;13.438;2022-07-29T05:16:25;6.70;;;3.63;;
11473;SDS011;5793;52.238;13.438;2022-07-29T05:18:53;4.63;;;3.80;;
11473;SDS011;5793;52.238;13.438;2022-07-29T05:21:21;5.25;;;3.47;;
11473;SDS011;5793;52.238;13.438;2022-07-29T05:23:49;7.60;;;3.97;;
11473;SDS011;5793;52.238;13.438;2022-07-29T05:26:16;5.90;;;3.65;;
11473;SDS011;5793;52.238;13.438;2022-07-29T05:28:44;6.22;;;3.72;;
11473;SDS011;5793;52.238;13.438;2022-07-29T05:31:13;12.13;;;3.85;;
11473;SDS011;5793;52.238;13.438;2022-07-29T05:33:42;9.43;;;3.97;;
11473;SDS011;5793;52.238;13.438;2022-07-29T05:36:11;5.55;;;3.70;;
11473;SDS011;5793;52.238;13.438;2022-07-29T05:38:39;7.32;;;3.55;;
11473;SDS011;5793;52.238;13.438;2022-07-29T05:41:07;7.80;;;3.65;;
11473;SDS011;5793;52.238;13.438;2022-07-29T05:43:35;9.30;;;3.88;;
11473;SDS011;5793;52.238;13.438;2022-07-29T05:46:03;6.00;;;3.50;;
11473;SDS011;5793;52.238;13.438;2022-07-29T05:48:32;7.57;;;3.65;;
11473;SDS011;5793;52.238;13.438;2022-07-29T05:51:00;8.20;;;3.85;;
11473;SDS011;5793;52.238;13.438;2022-07-29T05:53:28;4.47;;;3.35;;
11473;SDS011;5793;52.238;13.438;2022-07-29T05:55:55;4.38;;;3.50;;
11473;SDS011;5793;52.238;13.438;2022-07-29T05:58:23;6.75;;;3.28;;
11473;SDS011;5793;52.238;13.438;2022-07-29T06:00:51;5.25;;;3.45;;
11473;SDS011;5793;52.238;13.438;2022-07-29T06:03:19;6.25;;;3.50;;
11473;SDS011;5793;52.238;13.438;2022-07-29T06:05:48;5.32;;;3.17;;
11473;SDS011;5793;52.238;13.438;2022-07-29T06:08:16;4.65;;;3.05;;
11473;SDS011;5793;52.238;13.438;2022-07-29T06:10:44;7.47;;;3.42;;
11473;SDS011;5793;52.238;13.438;2022-07-29T06:13:12;5.20;;;3.25;;
11473;SDS011;5793;52.238;13.438;2022-07-29T06:15:42;6.32;;;3.42;;
11473;SDS011;5793;52.238;13.438;2022-07-29T06:18:10;9.77;;;3.75;;
11473;SDS011;5793;52.238;13.438;2022-07-29T06:20:39;5.13;;;2.88;;
11473;SDS011;5793;52.238;13.438;2022-07-29T06:23:09;6.97;;;3.35;;
11473;SDS011;5793;52.238;13.438;2022-07-29T06:25:37;6.20;;;3.30;;
11473;SDS011;5793;52.238;13.438;2022-07-29T06:28:06;6.18;;;3.10;;
11473;SDS011;5793;52.238;13.438;2022-07-29T06:30:34;4.65;;;2.92;;
11473;SDS011;5793;52.238;13.438;2022-07-29T06:33:02;5.75;;;3.00;;
11473;SDS011;5793;52.238;13.438;2022-07-29T06:35:32;3.30;;;2.78;;
11473;SDS011;5793;52.238;13.438;2022-07-29T06:38:08;4.70;;;2.88;;
11473;SDS011;5793;52.238;13.438;2022-07-29T06:40:57;7.10;;;3.10;;
11473;SDS011;5793;52.238;13.438;2022-07-29T06:43:29;5.68;;;3.20;;
11473;SDS011;5793;52.238;13.438;2022-07-29T06:46:00;8.05;;;3.05;;
11473;SDS011;5793;52.238;13.438;2022-07-29T06:48:29;7.03;;;3.00;;
11473;SDS011;5793;52.238;13.438;2022-07-29T06:50:57;6.40;;;3.08;;
11473;SDS011;5793;52.238;13.438;2022-07-29T06:53:27;5.22;;;3.20;;
11473;SDS011;5793;52.238;13.438;2022-07-29T06:55:57;6.40;;;2.88;;
11473;SDS011;5793;52.238;13.438;2022-07-29T06:58:26;12.18;;;3.75;;
11473;SDS011;5793;52.238;13.438;2022-07-29T07:00:55;6.05;;;3.15;;
11473;SDS011;5793;52.238;13.438;2022-07-29T07:03:23;6.60;;;3.00;;
11473;SDS011;5793;52.238;13.438;2022-07-29T07:05:51;7.63;;;3.20;;
11473;SDS011;5793;52.238;13.438;2022-07-29T07:08:21;6.53;;;3.20;;
11473;SDS011;5793;52.238;13.438;2022-07-29T07:10:51;5.20;;;2.80;;
11473;SDS011;5793;52.238;13.438;2022-07-29T07:13:19;6.57;;;2.90;;
11473;SDS011;5793;52.238;13.438;2022-07-29T07:15:47;6.28;;;2.78;;
11473;SDS011;5793;52.238;13.438;2022-07-29T07:18:16;6.43;;;3.25;;
11473;SDS011;5793;52.238;13.438;2022-07-29T07:20:45;7.35;;;2.85;;
11473;SDS011;5793;52.238;13.438;2022-07-29T07:23:13;7.43;;;3.00;;
11473;SDS011;5793;52.238;13.438;2022-07-29T07:25:41;6.70;;;2.55;;
11473;SDS011;5793;52.238;13.438;2022-07-29T07:28:10;5.38;;;2.70;;
11473;SDS011;5793;52.238;13.438;2022-07-29T07:30:38;7.63;;;2.78;;
11473;SDS011;5793;52.238;13.438;2022-07-29T07:33:06;4.47;;;2.72;;
11473;SDS011;5793;52.238;13.438;2022-07-29T07:35:34;5.88;;;3.13;;
11473;SDS011;5793;52.238;13.438;2022-07-29T07:38:02;5.35;;;2.78;;
11473;SDS011;5793;52.238;13.438;2022-07-29T07:40:32;4.65;;;2.75;;
11473;SDS011;5793;52.238;13.438;2022-07-29T07:42:59;5.57;;;2.75;;
11473;SDS011;5793;52.238;13.438;2022-07-29T07:45:29;5.15;;;3.28;;
11473;SDS011;5793;52.238;13.438;2022-07-29T07:47:58;4.78;;;2.80;;
11473;SDS011;5793;52.238;13.438;2022-07-29T07:50:26;7.95;;;3.03;;
11473;SDS011;5793;52.238;13.438;2022-07-29T07:52:55;8.18;;;2.83;;
11473;SDS011;5793;52.238;13.438;2022-07-29T07:55:24;7.85;;;2.67;;
11473;SDS011;5793;52.238;13.438;2022-07-29T07:57:52;5.60;;;2.28;;
11473;SDS011;5793;52.238;13.438;2022-07-29T08:00:21;7.60;;;2.72;;
11473;SDS011;5793;52.238;13.438;2022-07-29T08:02:50;3.67;;;2.42;;
11473;SDS011;5793;52.238;13.438;2022-07-29T08:05:18;3.70;;;2.40;;
11473;SDS011;5793;52.238;13.438;2022-07-29T08:07:46;6.18;;;2.60;;
11473;SDS011;5793;52.238;13.438;2022-07-29T08:10:14;7.82;;;3.03;;
11473;SDS011;5793;52.238;13.438;2022-07-29T08:13:04;6.03;;;2.20;;
11473;SDS011;5793;52.238;13.438;2022-07-29T08:15:32;4.93;;;2.72;;
11473;SDS011;5793;52.238;13.438;2022-07-29T08:18:02;6.93;;;2.47;;
11473;SDS011;5793;52.238;13.438;2022-07-29T08:20:34;6.40;;;2.58;;
11473;SDS011;5793;52.238;13.438;2022-07-29T08:23:04;4.50;;;2.47;;
11473;SDS011;5793;52.238;13.438;2022-07-29T08:25:34;4.03;;;2.42;;
11473;SDS011;5793;52.238;13.438;2022-07-29T08:28:05;6.78;;;2.30;;
11473;SDS011;5793;52.238;13.438;2022-07-29T08:30:33;5.57;;;2.65;;
11473;SDS011;5793;52.238;13.438;2022-07-29T08:33:03;10.57;;;2.92;;
11473;SDS011;5793;52.238;13.438;2022-07-29T08:35:31;5.45;;;2.45;;
11473;SDS011;5793;52.238;13.438;2022-07-29T08:38:01;4.95;;;2.60;;
11473;SDS011;5793;52.238;13.438;2022-07-29T08:40:29;5.88;;;2.67;;
11473;SDS011;5793;52.238;13.438;2022-07-29T08:42:58;5.80;;;2.72;;
11473;SDS011;5793;52.238;13.438;2022-07-29T08:45:26;7.20;;;2.47;;
11473;SDS011;5793;52.238;13.438;2022-07-29T08:47:56;6.60;;;2.63;;
11473;SDS011;5793;52.238;13.438;2022-07-29T08:50:25;5.43;;;2.55;;
11473;SDS011;5793;52.238;13.438;2022-07-29T08:52:53;6.43;;;2.40;;
11473;SDS011;5793;52.238;13.438;2022-07-29T08:55:25;8.23;;;2.85;;
11473;SDS011;5793;52.238;13.438;2022-07-29T08:57:53;8.80;;;2.63;;
11473;SDS011;5793;52.238;13.438;2022-07-29T09:00:22;6.53;;;2.92;;
11473;SDS011;5793;52.238;13.438;2022-07-29T09:02:56;3.70;;;2.30;;
11473;SDS011;5793;52.238;13.438;2022-07-29T09:05:27;5.32;;;2.25;;
11473;SDS011;5793;52.238;13.438;2022-07-29T09:07:55;8.50;;;2.42;;
11473;SDS011;5793;52.238;13.438;2022-07-29T09:10:23;3.83;;;2.22;;
11473;SDS011;5793;52.238;13.438;2022-07-29T09:12:51;11.20;;;2.88;;
11473;SDS011;5793;52.238;13.438;2022-07-29T09:15:21;4.78;;;2.00;;
11473;SDS011;5793;52.238;13.438;2022-07-29T09:17:49;7.68;;;2.28;;
11473;SDS011;5793;52.238;13.438;2022-07-29T09:20:17;7.22;;;2.80;;
11473;SDS011;5793;52.238;13.438;2022-07-29T09:22:47;6.25;;;2.33;;
11473;SDS011;5793;52.238;13.438;2022-07-29T09:25:31;4.53;;;2.40;;
11473;SDS011;5793;52.238;13.438;2022-07-29T09:28:05;7.10;;;2.08;;
11473;SDS011;5793;52.238;13.438;2022-07-29T09:30:33;3.42;;;2.38;;
11473;SDS011;5793;52.238;13.438;2022-07-29T09:33:01;3.47;;;2.00;;
11473;SDS011;5793;52.238;13.438;2022-07-29T09:35:30;4.40;;;2.13;;
11473;SDS011;5793;52.238;13.438;2022-07-29T09:38:01;7.40;;;2.10;;
11473;SDS011;5793;52.238;13.438;2022-07-29T09:40:38;4.80;;;2.17;;
11473;SDS011;5793;52.238;13.438;2022-07-29T09:43:10;9.65;;;2.80;;
11473;SDS011;5793;52.238;13.438;2022-07-29T09:45:38;4.13;;;2.45;;
11473;SDS011;5793;52.238;13.438;2022-07-29T09:48:13;5.63;;;2.50;;
11473;SDS011;5793;52.238;13.438;2022-07-29T09:50:42;5.22;;;2.30;;
11473;SDS011;5793;52.238;13.438;2022-07-29T09:53:12;5.22;;;2.80;;
11473;SDS011;5793;52.238;13.438;2022-07-29T09:55:57;6.97;;;2.35;;
11473;SDS011;5793;52.238;13.438;2022-07-29T09:58:25;9.38;;;3.30;;
11473;SDS011;5793;52.238;13.438;2022-07-29T10:00:54;6.20;;;2.45;;
11473;SDS011;5793;52.238;13.438;2022-07-29T10:03:23;3.22;;;2.35;;
11473;SDS011;5793;52.238;13.438;2022-07-29T10:06:03;5.38;;;2.50;;
11473;SDS011;5793;52.238;13.438;2022-07-29T10:08:34;7.07;;;2.40;;
11473;SDS011;5793;52.238;13.438;2022-07-29T10:11:09;12.80;;;2.63;;
11473;SDS011;5793;52.238;13.438;2022-07-29T10:13:38;4.40;;;2.60;;
11473;SDS011;5793;52.238;13.438;2022-07-29T10:16:07;5.97;;;2.35;;
11473;SDS011;5793;52.238;13.438;2022-07-29T10:18:36;6.55;;;2.38;;
11473;SDS011;5793;52.238;13.438;2022-07-29T10:21:05;3.45;;;2.40;;
11473;SDS011;5793;52.238;13.438;2022-07-29T10:23:35;5.43;;;2.72;;
11473;SDS011;5793;52.238;13.438;2022-07-29T10:26:11;3.80;;;2.38;;
11473;SDS011;5793;52.238;13.438;2022-07-29T10:28:40;5.88;;;2.63;;
11473;SDS011;5793;52.238;13.438;2022-07-29T10:31:09;9.40;;;2.53;;
11473;SDS011;5793;52.238;13.438;2022-07-29T10:33:46;4.47;;;2.83;;
11473;SDS011;5793;52.238;13.438;2022-07-29T10:36:32;4.18;;;2.42;;
11473;SDS011;5793;52.238;13.438;2022-07-29T10:39:13;4.50;;;2.63;;
11473;SDS011;5793;52.238;13.438;2022-07-29T10:42:11;5.32;;;2.80;;
11473;SDS011;5793;52.238;13.438;2022-07-29T10:44:45;3.97;;;2.50;;
11473;SDS011;5793;52.238;13.438;2022-07-29T10:47:20;4.55;;;2.90;;
11473;SDS011;5793;52.238;13.438;2022-07-29T10:49:54;4.28;;;2.60;;
11473;SDS011;5793;52.238;13.438;2022-07-29T10:58:13;3.80;;;2.45;;
11473;SDS011;5793;52.238;13.438;2022-07-29T11:00:44;4.90;;;2.80;;
11473;SDS011;5793;52.238;13.438;2022-07-29T11:09:33;8.73;;;3.05;;
11473;SDS011;5793;52.238;13.438;2022-07-29T11:12:05;5.70;;;3.00;;
11473;SDS011;5793;52.238;13.438;2022-07-29T11:15:13;5.65;;;2.92;;
11473;SDS011;5793;52.238;13.438;2022-07-29T11:18:03;5.55;;;3.00;;
11473;SDS011;5793;52.238;13.438;2022-07-29T11:20:41;7.43;;;2.70;;
11473;SDS011;5793;52.238;13.438;2022-07-29T11:23:17;6.78;;;3.10;;
11473;SDS011;5793;52.238;13.438;2022-07-29T11:28:51;4.55;;;2.50;;
11473;SDS011;5793;52.238;13.438;2022-07-29T11:31:31;7.50;;;3.20;;
11473;SDS011;5793;52.238;13.438;2022-07-29T11:34:20;5.57;;;2.63;;
11473;SDS011;5793;52.238;13.438;2022-07-29T11:39:43;4.53;;;2.40;;
11473;SDS011;5793;52.238;13.438;2022-07-29T11:45:22;5.07;;;2.83;;
11473;SDS011;5793;52.238;13.438;2022-07-29T11:48:15;3.30;;;2.50;;
11473;SDS011;5793;52.238;13.438;2022-07-29T11:50:55;9.23;;;2.63;;
11473;SDS011;5793;52.238;13.438;2022-07-29T11:53:24;3.50;;;2.55;;
11473;SDS011;5793;52.238;13.438;2022-07-29T11:55:57;7.78;;;2.78;;
11473;SDS011;5793;52.238;13.438;2022-07-29T11:58:28;5.30;;;3.13;;
11473;SDS011;5793;52.238;13.438;2022-07-29T12:00:59;6.43;;;2.72;;
11473;SDS011;5793;52.238;13.438;2022-07-29T12:03:30;5.82;;;2.78;;
11473;SDS011;5793;52.238;13.438;2022-07-29T12:06:02;6.13;;;2.88;;
11473;SDS011;5793;52.238;13.438;2022-07-29T12:08:38;4.13;;;2.70;;
11473;SDS011;5793;52.238;13.438;2022-07-29T12:11:14;4.50;;;2.80;;
11473;SDS011;5793;52.238;13.438;2022-07-29T12:13:47;4.50;;;2.65;;
11473;SDS011;5793;52.238;13.438;2022-07-29T12:16:17;4.93;;;2.63;;
11473;SDS011;5793;52.238;13.438;2022-07-29T12:18:55;6.65;;;2.83;;
11473;SDS011;5793;52.238;13.438;2022-07-29T12:21:28;3.90;;;2.65;;
11473;SDS011;5793;52.238;13.438;2022-07-29T12:23:56;3.13;;;2.35;;
11473;SDS011;5793;52.238;13.438;2022-07-29T12:26:34;4.68;;;2.47;;
11473;SDS011;5793;52.238;13.438;2022-07-29T12:29:02;4.13;;;2.25;;
11473;SDS011;5793;52.238;13.438;2022-07-29T12:31:40;8.35;;;2.90;;
11473;SDS011;5793;52.238;13.438;2022-07-29T12:34:11;3.78;;;2.58;;
11473;SDS011;5793;52.238;13.438;2022-07-29T12:36:40;4.43;;;2.35;;
11473;SDS011;5793;52.238;13.438;2022-07-29T12:39:08;4.43;;;2.22;;
11473;SDS011;5793;52.238;13.438;2022-07-29T12:41:37;2.72;;;2.30;;
11473;SDS011;5793;52.238;13.438;2022-07-29T12:44:05;2.85;;;2.20;;
11473;SDS011;5793;52.238;13.438;2022-07-29T12:46:33;4.35;;;2.38;;
11473;SDS011;5793;52.238;13.438;2022-07-29T12:49:03;6.03;;;2.38;;
11473;SDS011;5793;52.238;13.438;2022-07-29T12:51:32;3.83;;;2.45;;
11473;SDS011;5793;52.238;13.438;2022-07-29T12:54:02;3.05;;;2.25;;
11473;SDS011;5793;52.238;13.438;2022-07-29T12:56:32;3.25;;;2.40;;
11473;SDS011;5793;52.238;13.438;2022-07-29T12:59:13;5.88;;;2.88;;
11473;SDS011;5793;52.238;13.438;2022-07-29T13:01:42;3.45;;;2.20;;
11473;SDS011;5793;52.238;13.438;2022-07-29T13:04:13;4.25;;;2.38;;
11473;SDS011;5793;52.238;13.438;2022-07-29T13:06:57;4.15;;;2.67;;
11473;SDS011;5793;52.238;13.438;2022-07-29T13:09:35;5.10;;;2.45;;
11473;SDS011;5793;52.238;13.438;2022-07-29T13:12:05;3.92;;;2.20;;
11473;SDS011;5793;52.238;13.438;2022-07-29T13:14:34;3.00;;;2.42;;
11473;SDS011;5793;52.238;13.438;2022-07-29T13:17:04;5.75;;;1.92;;
11473;SDS011;5793;52.238;13.438;2022-07-29T13:19:35;4.80;;;2.22;;
11473;SDS011;5793;52.238;13.438;2022-07-29T13:22:06;5.25;;;2.40;;
11473;SDS011;5793;52.238;13.438;2022-07-29T13:24:44;6.05;;;2.45;;
11473;SDS011;5793;52.238;13.438;2022-07-29T13:27:13;5.78;;;2.30;;
11473;SDS011;5793;52.238;13.438;2022-07-29T13:29:41;4.55;;;2.40;;
11473;SDS011;5793;52.238;13.438;2022-07-29T13:32:10;3.28;;;2.40;;
11473;SDS011;5793;52.238;13.438;2022-07-29T13:34:40;3.20;;;2.22;;
11473;SDS011;5793;52.238;13.438;2022-07-29T13:37:08;5.78;;;2.15;;
11473;SDS011;5793;52.238;13.438;2022-07-29T13:39:36;4.05;;;2.35;;
11473;SDS011;5793;52.238;13.438;2022-07-29T13:42:04;4.97;;;2.33;;
11473;SDS011;5793;52.238;13.438;2022-07-29T13:44:36;4.22;;;2.45;;
11473;SDS011;5793;52.238;13.438;2022-07-29T13:47:04;3.15;;;2.08;;
11473;SDS011;5793;52.238;13.438;2022-07-29T13:49:32;7.85;;;2.63;;
11473;SDS011;5793;52.238;13.438;2022-07-29T13:52:02;5.03;;;2.35;;
11473;SDS011;5793;52.238;13.438;2022-07-29T13:54:33;4.35;;;2.30;;
11473;SDS011;5793;52.238;13.438;2022-07-29T13:57:07;5.93;;;2.25;;
11473;SDS011;5793;52.238;13.438;2022-07-29T13:59:37;4.35;;;2.20;;
11473;SDS011;5793;52.238;13.438;2022-07-29T14:02:05;6.15;;;2.70;;
11473;SDS011;5793;52.238;13.438;2022-07-29T14:04:33;2.35;;;2.10;;
11473;SDS011;5793;52.238;13.438;2022-07-29T14:07:06;4.10;;;2.42;;
11473;SDS011;5793;52.238;13.438;2022-07-29T14:09:33;5.82;;;2.20;;
11473;SDS011;5793;52.238;13.438;2022-07-29T14:12:07;3.13;;;2.35;;
11473;SDS011;5793;52.238;13.438;2022-07-29T14:14:35;6.35;;;2.75;;
11473;SDS011;5793;52.238;13.438;2022-07-29T14:17:03;2.92;;;2.20;;
11473;SDS011;5793;52.238;13.438;2022-07-29T14:19:34;4.70;;;2.67;;
11473;SDS011;5793;52.238;13.438;2022-07-29T14:22:06;3.58;;;2.40;;
11473;SDS011;5793;52.238;13.438;2022-07-29T14:24:36;3.28;;;2.30;;
11473;SDS011;5793;52.238;13.438;2022-07-29T14:27:04;6.60;;;2.50;;
11473;SDS011;5793;52.238;13.438;2022-07-29T14:29:33;4.65;;;2.58;;
11473;SDS011;5793;52.238;13.438;2022-07-29T14:32:04;5.60;;;2.50;;
11473;SDS011;5793;52.238;13.438;2022-07-29T14:34:33;6.40;;;2.70;;
11473;SDS011;5793;52.238;13.438;2022-07-29T14:37:00;3.50;;;2.17;;
11473;SDS011;5793;52.238;13.438;2022-07-29T14:39:32;3.92;;;2.40;;
11473;SDS011;5793;52.238;13.438;2022-07-29T14:42:08;3.47;;;2.30;;
11473;SDS011;5793;52.238;13.438;2022-07-29T14:44:37;4.30;;;2.42;;
11473;SDS011;5793;52.238;13.438;2022-07-29T14:47:06;3.55;;;2.30;;
11473;SDS011;5793;52.238;13.438;2022-07-29T14:49:34;2.85;;;2.33;;
11473;SDS011;5793;52.238;13.438;2022-07-29T14:52:02;2.45;;;2.10;;
11473;SDS011;5793;52.238;13.438;2022-07-29T14:54:30;3.55;;;2.33;;
11473;SDS011;5793;52.238;13.438;2022-07-29T14:56:59;6.30;;;2.38;;
11473;SDS011;5793;52.238;13.438;2022-07-29T14:59:27;3.10;;;2.40;;
11473;SDS011;5793;52.238;13.438;2022-07-29T15:01:55;4.10;;;2.67;;
11473;SDS011;5793;52.238;13.438;2022-07-29T15:04:23;3.22;;;2.50;;
11473;SDS011;5793;52.238;13.438;2022-07-29T15:06:51;4.45;;;2.45;;
11473;SDS011;5793;52.238;13.438;2022-07-29T15:09:19;2.50;;;2.30;;
11473;SDS011;5793;52.238;13.438;2022-07-29T15:11:47;5.57;;;2.50;;
11473;SDS011;5793;52.238;13.438;2022-07-29T15:14:16;2.63;;;2.10;;
11473;SDS011;5793;52.238;13.438;2022-07-29T15:16:43;5.03;;;2.50;;
11473;SDS011;5793;52.238;13.438;2022-07-29T15:19:13;5.05;;;2.35;;
11473;SDS011;5793;52.238;13.438;2022-07-29T15:21:41;4.97;;;2.33;;
11473;SDS011;5793;52.238;13.438;2022-07-29T15:24:14;2.97;;;2.10;;
11473;SDS011;5793;52.238;13.438;2022-07-29T15:26:42;4.10;;;2.53;;
11473;SDS011;5793;52.238;13.438;2022-07-29T15:29:10;4.00;;;2.45;;
11473;SDS011;5793;52.238;13.438;2022-07-29T15:31:39;2.50;;;2.10;;